Hlavní strana
METAR-TAF:

METAR-TAF

Letiště :

Córdoba, Argentina

zeměpisná šířka: 31-19S, zeměpisná délka: 064-13W, výška: 484 m

Aktuální stav počasí

Zpráva byla vytvořena před 22 minutami, v 11:00 UTC
Severní vítr 6 kt
Teplota 9°C
Vlhkost vzduchu 87%
Tlak 1021 hPa
Viditelnost 10 km a více
Žádná oblačnost pod 1500 m, nevyskytují se cumulonimby.

METAR: SACO 101100Z 36006KT CAVOK 09/07 Q1021 NOSIG

Čas: 08:22 (11:22 UTC)

Předpověď počasí

Zpráva byla vytvořena před 6 hodinami a 22 minutami, v 05:00 UTC
Předpověď platná od 10 v 06 UTC do 11 v 06 UTC
Severní vítr 8 kt
Viditelnost 10 km a více
Žádná oblačnost pod 1500 m, nevyskytují se cumulonimby.
Změna
od 10 v 13 UTC do 10 v 15 UTC
Severovýchodní vítr 15 kt
Změna
od 10 v 22 UTC do 11 v 00 UTC
Severní vítr 10 kt

TAF: SACO 100500Z 1006/1106 36008KT CAVOK TX23/1019Z TN08/1010Z BECMG 1013/1015 05015KT BECMG 1022/1100 36010KT

Stav a předpovědi počasí z více než 4 000 letišť (zprávy METAR a TAF).

Červené a žluté tečky na mapě představují dostupné meteorologické stanice.

Když kurzor umístíte na tečku, zobrazí se název stanice.

Pak kliknutím zobrazíte stav a předpověď počasí.

Chcete-li změnit mapu, kliknutím na zelené tlačítko se znaménkem +mapu přiblížíte, kliknutím na zelené tlačítko se znaménkem – mapu oddálíte a kliknutím na zelené šipky přejdete na sousední mapy.


METAR-TAF: